Mill Rose Farm Restricted Landing Area

Jump to: basic info | weather | runways | comments

Related pages: nearby airports | nearby navaids | notams | map

Basic information (top)

Codes: IL68
Location: lon 42.077202, lat -88.159798, elev 850 ft / 259 m msl
Status: small_airport

Weather (top)

Current conditions for Dupage Airport 11nm (20km) SSW (rec'd 2014/09/02 17:52Z):

KDPA 021752Z 26008KT 10SM CLR 27/14 A2990 RMK AO2 SLP120 T02670144 10267 20178 58004

Airport forecast for Dupage Airport 11nm (20km) SSW (rec'd 2014/09/02 18:30Z):

TAF KDPA 021728Z 0218/0318 26009KT P6SM SCT040 SCT080 
     FM030100 VRB03KT P6SM SKC 
     FM031500 18010KT P6SM SCT250

Runways (top)

N/S: 2,500 x 100 ft (762 x 30 m) — grass — lighted

Latest comments (top)

No comments yet for Mill Rose Farm Restricted Landing Area

More... (top)

See also NOTAMs and nearby airports and navaids, or visit the Mill Rose Farm Restricted Landing Area page at the main OurAirports website..